sensor_id;sensor_type;location;lat;lon;timestamp;P1;durP1;ratioP1;P2;durP2;ratioP2
41865;SDS011;27539;43.222;27.558;2023-09-19T00:01:39;2.53;;;2.33;;
41865;SDS011;27539;43.222;27.558;2023-09-19T00:04:10;3.03;;;1.92;;
41865;SDS011;27539;43.222;27.558;2023-09-19T00:09:03;2.78;;;1.83;;
41865;SDS011;27539;43.222;27.558;2023-09-19T00:11:29;1.77;;;1.60;;
41865;SDS011;27539;43.222;27.558;2023-09-19T00:13:56;1.83;;;1.35;;
41865;SDS011;27539;43.222;27.558;2023-09-19T00:16:22;1.77;;;1.63;;
41865;SDS011;27539;43.222;27.558;2023-09-19T00:18:48;1.73;;;1.50;;
41865;SDS011;27539;43.222;27.558;2023-09-19T00:21:14;3.50;;;1.87;;
41865;SDS011;27539;43.222;27.558;2023-09-19T00:23:40;1.80;;;1.70;;
41865;SDS011;27539;43.222;27.558;2023-09-19T00:26:06;3.10;;;1.75;;
41865;SDS011;27539;43.222;27.558;2023-09-19T00:28:31;2.53;;;1.60;;
41865;SDS011;27539;43.222;27.558;2023-09-19T00:30:57;2.53;;;1.75;;
41865;SDS011;27539;43.222;27.558;2023-09-19T00:33:26;2.63;;;1.88;;
41865;SDS011;27539;43.222;27.558;2023-09-19T00:35:52;2.17;;;1.73;;
41865;SDS011;27539;43.222;27.558;2023-09-19T00:40:51;1.80;;;1.52;;
41865;SDS011;27539;43.222;27.558;2023-09-19T00:43:18;1.55;;;1.45;;
41865;SDS011;27539;43.222;27.558;2023-09-19T00:45:44;1.58;;;1.48;;
41865;SDS011;27539;43.222;27.558;2023-09-19T00:48:13;2.20;;;1.85;;
41865;SDS011;27539;43.222;27.558;2023-09-19T00:50:40;2.80;;;2.10;;
41865;SDS011;27539;43.222;27.558;2023-09-19T00:53:07;6.50;;;1.80;;
41865;SDS011;27539;43.222;27.558;2023-09-19T00:55:38;2.08;;;1.58;;
41865;SDS011;27539;43.222;27.558;2023-09-19T01:00:31;2.70;;;1.48;;
41865;SDS011;27539;43.222;27.558;2023-09-19T01:02:59;3.88;;;2.15;;
41865;SDS011;27539;43.222;27.558;2023-09-19T01:05:29;2.47;;;1.85;;
41865;SDS011;27539;43.222;27.558;2023-09-19T01:07:55;2.13;;;2.00;;
41865;SDS011;27539;43.222;27.558;2023-09-19T01:10:21;2.45;;;1.92;;
41865;SDS011;27539;43.222;27.558;2023-09-19T01:18:47;2.25;;;2.05;;
41865;SDS011;27539;43.222;27.558;2023-09-19T01:21:36;1.70;;;1.60;;
41865;SDS011;27539;43.222;27.558;2023-09-19T01:27:14;2.00;;;1.83;;
41865;SDS011;27539;43.222;27.558;2023-09-19T01:29:50;2.28;;;1.35;;
41865;SDS011;27539;43.222;27.558;2023-09-19T01:32:17;4.80;;;2.30;;
41865;SDS011;27539;43.222;27.558;2023-09-19T01:34:54;2.17;;;2.00;;
41865;SDS011;27539;43.222;27.558;2023-09-19T01:37:23;2.28;;;1.90;;
41865;SDS011;27539;43.222;27.558;2023-09-19T01:39:53;1.50;;;1.40;;
41865;SDS011;27539;43.222;27.558;2023-09-19T01:42:28;2.10;;;1.90;;
41865;SDS011;27539;43.222;27.558;2023-09-19T01:45:03;1.75;;;1.65;;
41865;SDS011;27539;43.222;27.558;2023-09-19T01:47:38;1.88;;;1.77;;
41865;SDS011;27539;43.222;27.558;2023-09-19T01:53:07;1.30;;;1.20;;
41865;SDS011;27539;43.222;27.558;2023-09-19T01:55:41;2.17;;;1.88;;
41865;SDS011;27539;43.222;27.558;2023-09-19T02:00:59;2.38;;;2.15;;
41865;SDS011;27539;43.222;27.558;2023-09-19T02:03:26;1.77;;;1.65;;
41865;SDS011;27539;43.222;27.558;2023-09-19T02:05:54;3.40;;;2.03;;
41865;SDS011;27539;43.222;27.558;2023-09-19T02:08:20;2.03;;;1.70;;
41865;SDS011;27539;43.222;27.558;2023-09-19T02:10:50;2.13;;;1.92;;
41865;SDS011;27539;43.222;27.558;2023-09-19T02:13:16;2.38;;;2.17;;
41865;SDS011;27539;43.222;27.558;2023-09-19T02:15:42;3.10;;;2.20;;
41865;SDS011;27539;43.222;27.558;2023-09-19T02:18:11;2.40;;;2.20;;
41865;SDS011;27539;43.222;27.558;2023-09-19T02:20:38;2.28;;;2.10;;
41865;SDS011;27539;43.222;27.558;2023-09-19T02:23:07;2.47;;;1.98;;
41865;SDS011;27539;43.222;27.558;2023-09-19T02:25:33;1.80;;;1.70;;
41865;SDS011;27539;43.222;27.558;2023-09-19T02:27:58;2.97;;;2.35;;
41865;SDS011;27539;43.222;27.558;2023-09-19T02:30:26;2.80;;;2.45;;
41865;SDS011;27539;43.222;27.558;2023-09-19T02:32:51;2.17;;;1.98;;
41865;SDS011;27539;43.222;27.558;2023-09-19T02:35:17;1.98;;;1.88;;
41865;SDS011;27539;43.222;27.558;2023-09-19T02:37:46;3.20;;;2.42;;
41865;SDS011;27539;43.222;27.558;2023-09-19T02:40:12;1.55;;;1.40;;
41865;SDS011;27539;43.222;27.558;2023-09-19T02:42:46;2.75;;;1.77;;
41865;SDS011;27539;43.222;27.558;2023-09-19T02:45:18;2.17;;;1.98;;
41865;SDS011;27539;43.222;27.558;2023-09-19T02:47:45;2.47;;;2.22;;
41865;SDS011;27539;43.222;27.558;2023-09-19T02:50:11;2.33;;;2.05;;
41865;SDS011;27539;43.222;27.558;2023-09-19T02:52:37;1.90;;;1.77;;
41865;SDS011;27539;43.222;27.558;2023-09-19T02:55:03;2.08;;;1.90;;
41865;SDS011;27539;43.222;27.558;2023-09-19T02:57:31;2.28;;;2.00;;
41865;SDS011;27539;43.222;27.558;2023-09-19T03:02:23;2.13;;;1.85;;
41865;SDS011;27539;43.222;27.558;2023-09-19T03:04:49;4.32;;;2.38;;
41865;SDS011;27539;43.222;27.558;2023-09-19T03:09:42;1.83;;;1.70;;
41865;SDS011;27539;43.222;27.558;2023-09-19T03:12:08;3.78;;;2.28;;
41865;SDS011;27539;43.222;27.558;2023-09-19T03:14:33;1.98;;;1.77;;
41865;SDS011;27539;43.222;27.558;2023-09-19T03:17:00;1.88;;;1.75;;
41865;SDS011;27539;43.222;27.558;2023-09-19T03:19:29;2.95;;;2.50;;
41865;SDS011;27539;43.222;27.558;2023-09-19T03:21:55;1.67;;;1.58;;
41865;SDS011;27539;43.222;27.558;2023-09-19T03:24:22;2.85;;;2.00;;
41865;SDS011;27539;43.222;27.558;2023-09-19T03:26:48;2.70;;;2.38;;
41865;SDS011;27539;43.222;27.558;2023-09-19T03:29:14;2.97;;;2.35;;
41865;SDS011;27539;43.222;27.558;2023-09-19T03:31:40;2.63;;;2.17;;
41865;SDS011;27539;43.222;27.558;2023-09-19T03:34:06;3.00;;;2.05;;
41865;SDS011;27539;43.222;27.558;2023-09-19T03:36:32;2.58;;;2.10;;
41865;SDS011;27539;43.222;27.558;2023-09-19T03:38:57;3.70;;;2.28;;
41865;SDS011;27539;43.222;27.558;2023-09-19T03:41:23;3.70;;;2.40;;
41865;SDS011;27539;43.222;27.558;2023-09-19T03:43:48;2.10;;;1.88;;
41865;SDS011;27539;43.222;27.558;2023-09-19T03:46:14;3.08;;;2.58;;
41865;SDS011;27539;43.222;27.558;2023-09-19T03:48:40;2.63;;;2.03;;
41865;SDS011;27539;43.222;27.558;2023-09-19T03:51:05;3.30;;;2.17;;
41865;SDS011;27539;43.222;27.558;2023-09-19T03:53:31;2.53;;;2.33;;
41865;SDS011;27539;43.222;27.558;2023-09-19T03:55:57;5.93;;;3.00;;
41865;SDS011;27539;43.222;27.558;2023-09-19T03:58:22;2.70;;;2.50;;
41865;SDS011;27539;43.222;27.558;2023-09-19T04:00:48;3.10;;;1.88;;
41865;SDS011;27539;43.222;27.558;2023-09-19T04:03:15;2.22;;;2.03;;
41865;SDS011;27539;43.222;27.558;2023-09-19T04:05:45;5.90;;;2.25;;
41865;SDS011;27539;43.222;27.558;2023-09-19T04:08:14;4.13;;;2.65;;
41865;SDS011;27539;43.222;27.558;2023-09-19T04:10:42;2.60;;;2.13;;
41865;SDS011;27539;43.222;27.558;2023-09-19T04:13:08;2.00;;;1.80;;
41865;SDS011;27539;43.222;27.558;2023-09-19T04:15:34;2.72;;;2.35;;
41865;SDS011;27539;43.222;27.558;2023-09-19T04:18:00;3.13;;;2.53;;
41865;SDS011;27539;43.222;27.558;2023-09-19T04:20:25;2.42;;;2.03;;
41865;SDS011;27539;43.222;27.558;2023-09-19T04:22:50;2.85;;;2.33;;
41865;SDS011;27539;43.222;27.558;2023-09-19T04:25:16;2.97;;;2.33;;
41865;SDS011;27539;43.222;27.558;2023-09-19T04:27:43;3.13;;;2.35;;
41865;SDS011;27539;43.222;27.558;2023-09-19T04:30:09;3.33;;;2.72;;
41865;SDS011;27539;43.222;27.558;2023-09-19T04:32:35;5.43;;;2.30;;
41865;SDS011;27539;43.222;27.558;2023-09-19T04:35:04;2.70;;;1.80;;
41865;SDS011;27539;43.222;27.558;2023-09-19T04:37:38;3.13;;;2.55;;
41865;SDS011;27539;43.222;27.558;2023-09-19T04:40:06;2.15;;;1.95;;
41865;SDS011;27539;43.222;27.558;2023-09-19T04:42:40;2.20;;;1.98;;
41865;SDS011;27539;43.222;27.558;2023-09-19T04:45:05;2.55;;;2.33;;
41865;SDS011;27539;43.222;27.558;2023-09-19T04:47:32;3.05;;;2.63;;
41865;SDS011;27539;43.222;27.558;2023-09-19T04:49:57;2.63;;;1.95;;
41865;SDS011;27539;43.222;27.558;2023-09-19T04:52:24;2.70;;;2.13;;
41865;SDS011;27539;43.222;27.558;2023-09-19T04:54:49;1.88;;;1.67;;
41865;SDS011;27539;43.222;27.558;2023-09-19T04:57:15;3.40;;;2.33;;
41865;SDS011;27539;43.222;27.558;2023-09-19T04:59:41;3.15;;;2.40;;
41865;SDS011;27539;43.222;27.558;2023-09-19T05:02:06;3.83;;;2.58;;
41865;SDS011;27539;43.222;27.558;2023-09-19T05:04:33;3.65;;;2.40;;
41865;SDS011;27539;43.222;27.558;2023-09-19T05:06:59;2.22;;;2.03;;
41865;SDS011;27539;43.222;27.558;2023-09-19T05:09:26;2.40;;;2.20;;
41865;SDS011;27539;43.222;27.558;2023-09-19T05:11:51;2.05;;;1.77;;
41865;SDS011;27539;43.222;27.558;2023-09-19T05:14:18;2.42;;;2.22;;
41865;SDS011;27539;43.222;27.558;2023-09-19T05:16:44;2.47;;;2.13;;
41865;SDS011;27539;43.222;27.558;2023-09-19T05:19:09;5.10;;;2.13;;
41865;SDS011;27539;43.222;27.558;2023-09-19T05:21:37;3.50;;;2.38;;
41865;SDS011;27539;43.222;27.558;2023-09-19T05:24:04;13.60;;;2.53;;
41865;SDS011;27539;43.222;27.558;2023-09-19T05:26:31;3.33;;;2.00;;
41865;SDS011;27539;43.222;27.558;2023-09-19T05:28:57;2.13;;;1.83;;
41865;SDS011;27539;43.222;27.558;2023-09-19T05:31:23;1.90;;;1.80;;
41865;SDS011;27539;43.222;27.558;2023-09-19T05:33:49;1.45;;;1.25;;
41865;SDS011;27539;43.222;27.558;2023-09-19T05:36:15;5.70;;;2.22;;
41865;SDS011;27539;43.222;27.558;2023-09-19T05:38:41;3.35;;;2.53;;
41865;SDS011;27539;43.222;27.558;2023-09-19T05:41:07;2.47;;;2.13;;
41865;SDS011;27539;43.222;27.558;2023-09-19T05:46:02;1.70;;;1.60;;
41865;SDS011;27539;43.222;27.558;2023-09-19T05:48:28;2.70;;;2.05;;
41865;SDS011;27539;43.222;27.558;2023-09-19T05:50:53;1.70;;;1.60;;
41865;SDS011;27539;43.222;27.558;2023-09-19T05:53:19;2.75;;;2.08;;
41865;SDS011;27539;43.222;27.558;2023-09-19T05:55:44;1.85;;;1.40;;
41865;SDS011;27539;43.222;27.558;2023-09-19T05:58:10;2.13;;;1.90;;
41865;SDS011;27539;43.222;27.558;2023-09-19T06:00:39;1.77;;;1.67;;
41865;SDS011;27539;43.222;27.558;2023-09-19T06:03:06;2.35;;;1.75;;
41865;SDS011;27539;43.222;27.558;2023-09-19T06:05:32;1.48;;;1.38;;
41865;SDS011;27539;43.222;27.558;2023-09-19T06:07:57;1.90;;;1.77;;
41865;SDS011;27539;43.222;27.558;2023-09-19T06:10:26;2.05;;;1.70;;
41865;SDS011;27539;43.222;27.558;2023-09-19T06:12:53;1.98;;;1.80;;
41865;SDS011;27539;43.222;27.558;2023-09-19T06:15:21;1.67;;;1.52;;
41865;SDS011;27539;43.222;27.558;2023-09-19T06:17:50;1.60;;;1.50;;
41865;SDS011;27539;43.222;27.558;2023-09-19T06:20:20;1.58;;;1.38;;
41865;SDS011;27539;43.222;27.558;2023-09-19T06:22:47;1.77;;;1.63;;
41865;SDS011;27539;43.222;27.558;2023-09-19T06:25:13;2.00;;;1.70;;
41865;SDS011;27539;43.222;27.558;2023-09-19T06:27:49;2.00;;;1.80;;
41865;SDS011;27539;43.222;27.558;2023-09-19T06:30:17;1.40;;;1.30;;
41865;SDS011;27539;43.222;27.558;2023-09-19T06:32:43;10.80;;;1.37;;
41865;SDS011;27539;43.222;27.558;2023-09-19T06:35:09;34.85;;;2.88;;
41865;SDS011;27539;43.222;27.558;2023-09-19T06:37:39;1.98;;;1.85;;
41865;SDS011;27539;43.222;27.558;2023-09-19T06:40:12;2.15;;;1.63;;
41865;SDS011;27539;43.222;27.558;2023-09-19T06:42:51;1.10;;;1.00;;
41865;SDS011;27539;43.222;27.558;2023-09-19T06:45:21;1.55;;;1.45;;
41865;SDS011;27539;43.222;27.558;2023-09-19T06:47:49;1.43;;;1.33;;
41865;SDS011;27539;43.222;27.558;2023-09-19T06:50:19;1.50;;;1.17;;
41865;SDS011;27539;43.222;27.558;2023-09-19T06:52:47;1.23;;;1.13;;
41865;SDS011;27539;43.222;27.558;2023-09-19T06:55:15;1.58;;;1.38;;
41865;SDS011;27539;43.222;27.558;2023-09-19T06:57:41;1.30;;;1.20;;
41865;SDS011;27539;43.222;27.558;2023-09-19T07:00:09;2.38;;;1.38;;
41865;SDS011;27539;43.222;27.558;2023-09-19T07:02:45;1.55;;;1.45;;
41865;SDS011;27539;43.222;27.558;2023-09-19T07:05:10;4.17;;;3.27;;
41865;SDS011;27539;43.222;27.558;2023-09-19T07:07:36;3.23;;;2.80;;
41865;SDS011;27539;43.222;27.558;2023-09-19T07:10:02;1.47;;;1.37;;
41865;SDS011;27539;43.222;27.558;2023-09-19T07:12:35;1.42;;;1.33;;
41865;SDS011;27539;43.222;27.558;2023-09-19T07:15:01;1.75;;;1.60;;
41865;SDS011;27539;43.222;27.558;2023-09-19T07:17:27;1.20;;;1.10;;
41865;SDS011;27539;43.222;27.558;2023-09-19T07:22:19;1.52;;;1.08;;
41865;SDS011;27539;43.222;27.558;2023-09-19T07:24:45;1.00;;;0.87;;
41865;SDS011;27539;43.222;27.558;2023-09-19T07:27:10;1.50;;;1.40;;
41865;SDS011;27539;43.222;27.558;2023-09-19T07:29:36;1.43;;;1.33;;
41865;SDS011;27539;43.222;27.558;2023-09-19T07:32:02;1.40;;;1.30;;
41865;SDS011;27539;43.222;27.558;2023-09-19T07:34:28;1.33;;;1.07;;
41865;SDS011;27539;43.222;27.558;2023-09-19T07:36:54;2.53;;;1.50;;
41865;SDS011;27539;43.222;27.558;2023-09-19T07:39:19;1.20;;;1.10;;
41865;SDS011;27539;43.222;27.558;2023-09-19T07:41:45;3.20;;;2.00;;
41865;SDS011;27539;43.222;27.558;2023-09-19T07:44:11;1.70;;;1.20;;
41865;SDS011;27539;43.222;27.558;2023-09-19T07:46:36;1.33;;;1.23;;
41865;SDS011;27539;43.222;27.558;2023-09-19T07:49:02;2.77;;;1.80;;
41865;SDS011;27539;43.222;27.558;2023-09-19T07:51:27;1.10;;;1.03;;
41865;SDS011;27539;43.222;27.558;2023-09-19T07:53:54;0.95;;;0.93;;
41865;SDS011;27539;43.222;27.558;2023-09-19T07:56:20;1.40;;;1.30;;
41865;SDS011;27539;43.222;27.558;2023-09-19T07:58:45;1.70;;;1.13;;
41865;SDS011;27539;43.222;27.558;2023-09-19T08:01:11;1.30;;;0.98;;
41865;SDS011;27539;43.222;27.558;2023-09-19T08:03:38;1.08;;;1.02;;
41865;SDS011;27539;43.222;27.558;2023-09-19T08:06:08;1.35;;;1.00;;
41865;SDS011;27539;43.222;27.558;2023-09-19T08:08:34;1.90;;;1.45;;
41865;SDS011;27539;43.222;27.558;2023-09-19T08:11:02;2.03;;;1.40;;
41865;SDS011;27539;43.222;27.558;2023-09-19T08:13:49;1.90;;;0.95;;
41865;SDS011;27539;43.222;27.558;2023-09-19T08:16:15;1.93;;;1.37;;
41865;SDS011;27539;43.222;27.558;2023-09-19T08:18:42;1.35;;;1.20;;
41865;SDS011;27539;43.222;27.558;2023-09-19T08:21:13;1.50;;;0.95;;
41865;SDS011;27539;43.222;27.558;2023-09-19T08:23:39;2.70;;;1.70;;
41865;SDS011;27539;43.222;27.558;2023-09-19T08:26:05;2.55;;;1.60;;
41865;SDS011;27539;43.222;27.558;2023-09-19T08:28:35;2.00;;;1.17;;
41865;SDS011;27539;43.222;27.558;2023-09-19T08:31:01;1.02;;;0.68;;
41865;SDS011;27539;43.222;27.558;2023-09-19T08:33:29;0.70;;;0.60;;
41865;SDS011;27539;43.222;27.558;2023-09-19T08:35:55;0.63;;;0.63;;
41865;SDS011;27539;43.222;27.558;2023-09-19T08:38:21;0.75;;;0.75;;
41865;SDS011;27539;43.222;27.558;2023-09-19T08:40:46;0.77;;;0.77;;
41865;SDS011;27539;43.222;27.558;2023-09-19T08:43:12;0.77;;;0.77;;
41865;SDS011;27539;43.222;27.558;2023-09-19T08:45:37;1.20;;;1.10;;
41865;SDS011;27539;43.222;27.558;2023-09-19T08:56:28;1.15;;;0.98;;
41865;SDS011;27539;43.222;27.558;2023-09-19T08:58:59;0.85;;;0.85;;
41865;SDS011;27539;43.222;27.558;2023-09-19T09:01:27;1.67;;;1.20;;
41865;SDS011;27539;43.222;27.558;2023-09-19T09:03:54;1.70;;;1.00;;
41865;SDS011;27539;43.222;27.558;2023-09-19T09:08:46;1.10;;;0.93;;
41865;SDS011;27539;43.222;27.558;2023-09-19T09:11:15;1.17;;;0.95;;
41865;SDS011;27539;43.222;27.558;2023-09-19T09:13:43;0.90;;;0.90;;
41865;SDS011;27539;43.222;27.558;2023-09-19T09:16:09;1.98;;;1.17;;
41865;SDS011;27539;43.222;27.558;2023-09-19T09:18:40;1.10;;;1.02;;
41865;SDS011;27539;43.222;27.558;2023-09-19T09:21:06;0.90;;;0.80;;
41865;SDS011;27539;43.222;27.558;2023-09-19T09:23:32;1.10;;;1.00;;
41865;SDS011;27539;43.222;27.558;2023-09-19T09:25:58;1.17;;;1.00;;
41865;SDS011;27539;43.222;27.558;2023-09-19T09:28:28;1.45;;;1.13;;
41865;SDS011;27539;43.222;27.558;2023-09-19T09:30:56;1.58;;;1.00;;
41865;SDS011;27539;43.222;27.558;2023-09-19T09:33:23;1.48;;;0.90;;
41865;SDS011;27539;43.222;27.558;2023-09-19T09:35:49;1.00;;;0.90;;
41865;SDS011;27539;43.222;27.558;2023-09-19T09:38:17;1.02;;;0.85;;
41865;SDS011;27539;43.222;27.558;2023-09-19T09:40:47;0.90;;;0.88;;
41865;SDS011;27539;43.222;27.558;2023-09-19T09:43:40;2.97;;;1.48;;
41865;SDS011;27539;43.222;27.558;2023-09-19T09:46:13;8.32;;;0.85;;
41865;SDS011;27539;43.222;27.558;2023-09-19T09:49:07;0.95;;;0.93;;
41865;SDS011;27539;43.222;27.558;2023-09-19T09:51:48;1.23;;;1.13;;
41865;SDS011;27539;43.222;27.558;2023-09-19T09:54:25;1.25;;;1.15;;
41865;SDS011;27539;43.222;27.558;2023-09-19T09:57:02;1.15;;;0.98;;
41865;SDS011;27539;43.222;27.558;2023-09-19T09:59:46;0.90;;;0.80;;
41865;SDS011;27539;43.222;27.558;2023-09-19T10:02:17;0.93;;;0.93;;
41865;SDS011;27539;43.222;27.558;2023-09-19T10:04:50;3.58;;;1.17;;
41865;SDS011;27539;43.222;27.558;2023-09-19T10:07:34;0.90;;;0.90;;
41865;SDS011;27539;43.222;27.558;2023-09-19T10:10:32;1.10;;;1.00;;
41865;SDS011;27539;43.222;27.558;2023-09-19T10:13:11;0.82;;;0.70;;
41865;SDS011;27539;43.222;27.558;2023-09-19T10:15:43;1.63;;;1.48;;
41865;SDS011;27539;43.222;27.558;2023-09-19T10:18:23;1.33;;;1.08;;
41865;SDS011;27539;43.222;27.558;2023-09-19T10:20:50;2.10;;;1.58;;
41865;SDS011;27539;43.222;27.558;2023-09-19T10:23:17;1.38;;;1.27;;
41865;SDS011;27539;43.222;27.558;2023-09-19T10:25:51;3.13;;;1.58;;
41865;SDS011;27539;43.222;27.558;2023-09-19T10:30:55;0.77;;;0.77;;
41865;SDS011;27539;43.222;27.558;2023-09-19T10:33:23;2.20;;;1.10;;
41865;SDS011;27539;43.222;27.558;2023-09-19T10:35:52;1.10;;;1.00;;
41865;SDS011;27539;43.222;27.558;2023-09-19T10:38:25;4.60;;;1.10;;
41865;SDS011;27539;43.222;27.558;2023-09-19T10:40:54;1.35;;;1.10;;
41865;SDS011;27539;43.222;27.558;2023-09-19T10:43:26;5.25;;;1.88;;
41865;SDS011;27539;43.222;27.558;2023-09-19T10:45:56;1.40;;;1.27;;
41865;SDS011;27539;43.222;27.558;2023-09-19T10:48:25;0.80;;;0.80;;
41865;SDS011;27539;43.222;27.558;2023-09-19T10:51:12;0.93;;;0.87;;
41865;SDS011;27539;43.222;27.558;2023-09-19T10:53:54;2.85;;;0.85;;
41865;SDS011;27539;43.222;27.558;2023-09-19T10:56:37;1.13;;;1.00;;
41865;SDS011;27539;43.222;27.558;2023-09-19T10:59:10;0.80;;;0.68;;
41865;SDS011;27539;43.222;27.558;2023-09-19T11:26:42;1.05;;;0.80;;
41865;SDS011;27539;43.222;27.558;2023-09-19T11:29:35;1.90;;;0.98;;
41865;SDS011;27539;43.222;27.558;2023-09-19T11:32:01;0.80;;;0.80;;
41865;SDS011;27539;43.222;27.558;2023-09-19T11:37:01;1.13;;;1.02;;
41865;SDS011;27539;43.222;27.558;2023-09-19T11:39:29;0.63;;;0.63;;
41865;SDS011;27539;43.222;27.558;2023-09-19T11:41:55;0.75;;;0.75;;
41865;SDS011;27539;43.222;27.558;2023-09-19T11:49:29;1.48;;;1.00;;
41865;SDS011;27539;43.222;27.558;2023-09-19T11:51:57;1.10;;;0.88;;
41865;SDS011;27539;43.222;27.558;2023-09-19T11:54:30;1.48;;;1.30;;
41865;SDS011;27539;43.222;27.558;2023-09-19T11:56:57;1.40;;;1.20;;
41865;SDS011;27539;43.222;27.558;2023-09-19T11:59:24;1.55;;;1.15;;
41865;SDS011;27539;43.222;27.558;2023-09-19T12:01:59;2.05;;;1.02;;
41865;SDS011;27539;43.222;27.558;2023-09-19T12:04:35;1.23;;;0.77;;
41865;SDS011;27539;43.222;27.558;2023-09-19T12:07:12;0.70;;;0.70;;
41865;SDS011;27539;43.222;27.558;2023-09-19T12:09:42;0.60;;;0.60;;
41865;SDS011;27539;43.222;27.558;2023-09-19T12:12:13;0.65;;;0.65;;
41865;SDS011;27539;43.222;27.558;2023-09-19T12:14:48;1.02;;;1.02;;
41865;SDS011;27539;43.222;27.558;2023-09-19T12:17:14;1.50;;;0.82;;
41865;SDS011;27539;43.222;27.558;2023-09-19T12:19:49;8.37;;;1.50;;
41865;SDS011;27539;43.222;27.558;2023-09-19T12:22:16;2.47;;;1.33;;
41865;SDS011;27539;43.222;27.558;2023-09-19T12:24:44;1.15;;;0.98;;
41865;SDS011;27539;43.222;27.558;2023-09-19T12:27:10;1.23;;;1.13;;
41865;SDS011;27539;43.222;27.558;2023-09-19T12:29:43;1.30;;;1.20;;
41865;SDS011;27539;43.222;27.558;2023-09-19T12:32:10;0.88;;;0.88;;
41865;SDS011;27539;43.222;27.558;2023-09-19T12:34:36;0.80;;;0.80;;
41865;SDS011;27539;43.222;27.558;2023-09-19T12:37:14;1.70;;;1.50;;
41865;SDS011;27539;43.222;27.558;2023-09-19T12:39:50;2.05;;;0.90;;
41865;SDS011;27539;43.222;27.558;2023-09-19T12:42:26;1.38;;;1.20;;
41865;SDS011;27539;43.222;27.558;2023-09-19T12:44:57;0.98;;;0.88;;
41865;SDS011;27539;43.222;27.558;2023-09-19T12:47:26;1.08;;;0.88;;
41865;SDS011;27539;43.222;27.558;2023-09-19T12:52:45;0.90;;;0.90;;
41865;SDS011;27539;43.222;27.558;2023-09-19T12:55:21;1.33;;;1.08;;
41865;SDS011;27539;43.222;27.558;2023-09-19T13:00:36;1.85;;;1.30;;
41865;SDS011;27539;43.222;27.558;2023-09-19T13:03:17;1.08;;;1.02;;
41865;SDS011;27539;43.222;27.558;2023-09-19T13:08:27;0.90;;;0.90;;
41865;SDS011;27539;43.222;27.558;2023-09-19T13:13:51;1.58;;;1.40;;
41865;SDS011;27539;43.222;27.558;2023-09-19T13:22:05;1.20;;;1.10;;
41865;SDS011;27539;43.222;27.558;2023-09-19T13:24:49;1.13;;;1.13;;
41865;SDS011;27539;43.222;27.558;2023-09-19T13:27:16;2.17;;;1.30;;
41865;SDS011;27539;43.222;27.558;2023-09-19T13:29:42;0.90;;;0.90;;
41865;SDS011;27539;43.222;27.558;2023-09-19T13:32:07;1.53;;;0.97;;
41865;SDS011;27539;43.222;27.558;2023-09-19T13:34:36;0.68;;;0.68;;
41865;SDS011;27539;43.222;27.558;2023-09-19T13:37:02;0.65;;;0.65;;
41865;SDS011;27539;43.222;27.558;2023-09-19T13:39:29;0.90;;;0.80;;
41865;SDS011;27539;43.222;27.558;2023-09-19T13:41:55;0.80;;;0.80;;
41865;SDS011;27539;43.222;27.558;2023-09-19T13:44:20;0.90;;;0.77;;
41865;SDS011;27539;43.222;27.558;2023-09-19T13:46:46;2.43;;;1.07;;
41865;SDS011;27539;43.222;27.558;2023-09-19T13:49:11;1.57;;;0.80;;
41865;SDS011;27539;43.222;27.558;2023-09-19T13:51:37;0.70;;;0.70;;
41865;SDS011;27539;43.222;27.558;2023-09-19T13:54:03;1.03;;;0.93;;
41865;SDS011;27539;43.222;27.558;2023-09-19T13:56:28;0.83;;;0.80;;
41865;SDS011;27539;43.222;27.558;2023-09-19T14:01:20;0.77;;;0.77;;
41865;SDS011;27539;43.222;27.558;2023-09-19T14:03:46;1.17;;;1.00;;
41865;SDS011;27539;43.222;27.558;2023-09-19T14:06:15;7.33;;;1.00;;
41865;SDS011;27539;43.222;27.558;2023-09-19T14:08:41;0.73;;;0.65;;
41865;SDS011;27539;43.222;27.558;2023-09-19T14:11:07;1.00;;;0.90;;
41865;SDS011;27539;43.222;27.558;2023-09-19T14:13:33;2.13;;;0.90;;
41865;SDS011;27539;43.222;27.558;2023-09-19T14:16:06;1.20;;;1.10;;
41865;SDS011;27539;43.222;27.558;2023-09-19T14:18:33;1.92;;;1.45;;
41865;SDS011;27539;43.222;27.558;2023-09-19T14:21:02;1.27;;;1.17;;
41865;SDS011;27539;43.222;27.558;2023-09-19T14:23:37;1.20;;;1.10;;
41865;SDS011;27539;43.222;27.558;2023-09-19T14:26:03;0.93;;;0.93;;
41865;SDS011;27539;43.222;27.558;2023-09-19T14:28:30;1.27;;;1.17;;
41865;SDS011;27539;43.222;27.558;2023-09-19T14:31:03;1.08;;;0.98;;
41865;SDS011;27539;43.222;27.558;2023-09-19T14:33:30;1.05;;;1.02;;
41865;SDS011;27539;43.222;27.558;2023-09-19T14:35:56;0.80;;;0.80;;
41865;SDS011;27539;43.222;27.558;2023-09-19T14:38:21;1.17;;;1.13;;
41865;SDS011;27539;43.222;27.558;2023-09-19T14:40:47;1.77;;;1.50;;
41865;SDS011;27539;43.222;27.558;2023-09-19T14:43:15;2.05;;;1.60;;
41865;SDS011;27539;43.222;27.558;2023-09-19T14:45:40;3.23;;;2.13;;
41865;SDS011;27539;43.222;27.558;2023-09-19T14:48:06;2.00;;;1.80;;
41865;SDS011;27539;43.222;27.558;2023-09-19T14:50:32;2.72;;;1.73;;
41865;SDS011;27539;43.222;27.558;2023-09-19T14:52:58;1.97;;;1.80;;
41865;SDS011;27539;43.222;27.558;2023-09-19T14:55:27;6.60;;;2.38;;
41865;SDS011;27539;43.222;27.558;2023-09-19T14:57:54;3.67;;;2.47;;
41865;SDS011;27539;43.222;27.558;2023-09-19T15:00:23;2.25;;;2.05;;
41865;SDS011;27539;43.222;27.558;2023-09-19T15:02:49;6.00;;;2.17;;
41865;SDS011;27539;43.222;27.558;2023-09-19T15:05:15;4.13;;;2.50;;
41865;SDS011;27539;43.222;27.558;2023-09-19T15:07:41;4.25;;;2.17;;
41865;SDS011;27539;43.222;27.558;2023-09-19T15:10:07;2.77;;;2.50;;
41865;SDS011;27539;43.222;27.558;2023-09-19T15:12:34;1.50;;;1.35;;
41865;SDS011;27539;43.222;27.558;2023-09-19T15:15:03;1.50;;;1.40;;
41865;SDS011;27539;43.222;27.558;2023-09-19T15:17:33;1.95;;;1.60;;
41865;SDS011;27539;43.222;27.558;2023-09-19T15:19:58;2.63;;;2.10;;
41865;SDS011;27539;43.222;27.558;2023-09-19T15:22:24;4.77;;;2.90;;
41865;SDS011;27539;43.222;27.558;2023-09-19T15:24:50;4.63;;;3.07;;
41865;SDS011;27539;43.222;27.558;2023-09-19T15:27:16;2.97;;;2.40;;
41865;SDS011;27539;43.222;27.558;2023-09-19T15:29:44;1.77;;;1.60;;
41865;SDS011;27539;43.222;27.558;2023-09-19T15:32:11;0.98;;;0.82;;
41865;SDS011;27539;43.222;27.558;2023-09-19T15:34:36;1.33;;;1.10;;
41865;SDS011;27539;43.222;27.558;2023-09-19T15:37:02;1.20;;;1.10;;
41865;SDS011;27539;43.222;27.558;2023-09-19T15:39:29;1.60;;;1.50;;
41865;SDS011;27539;43.222;27.558;2023-09-19T15:41:58;1.20;;;1.10;;
41865;SDS011;27539;43.222;27.558;2023-09-19T15:44:24;2.40;;;1.80;;
41865;SDS011;27539;43.222;27.558;2023-09-19T15:46:51;1.08;;;0.93;;
41865;SDS011;27539;43.222;27.558;2023-09-19T15:49:17;1.30;;;1.13;;
41865;SDS011;27539;43.222;27.558;2023-09-19T15:51:43;2.77;;;1.57;;
41865;SDS011;27539;43.222;27.558;2023-09-19T15:54:12;1.17;;;1.07;;
41865;SDS011;27539;43.222;27.558;2023-09-19T15:56:39;1.50;;;1.30;;
41865;SDS011;27539;43.222;27.558;2023-09-19T15:59:10;1.38;;;1.13;;
41865;SDS011;27539;43.222;27.558;2023-09-19T16:01:43;2.75;;;1.58;;
41865;SDS011;27539;43.222;27.558;2023-09-19T16:06:35;2.47;;;1.73;;
41865;SDS011;27539;43.222;27.558;2023-09-19T16:09:01;3.38;;;2.22;;
41865;SDS011;27539;43.222;27.558;2023-09-19T16:11:29;1.48;;;1.30;;
41865;SDS011;27539;43.222;27.558;2023-09-19T16:13:57;1.85;;;1.73;;
41865;SDS011;27539;43.222;27.558;2023-09-19T16:16:23;1.60;;;1.33;;
41865;SDS011;27539;43.222;27.558;2023-09-19T16:18:50;7.60;;;2.08;;
41865;SDS011;27539;43.222;27.558;2023-09-19T16:21:16;1.50;;;1.40;;